sensor_id;sensor_type;location;lat;lon;timestamp;temperature;humidity
2783;DHT22;1399;47.072;15.452;2023-07-16T00:02:15;22.70;90.80
2783;DHT22;1399;47.072;15.452;2023-07-16T00:04:40;22.70;90.80
2783;DHT22;1399;47.072;15.452;2023-07-16T00:07:07;22.60;90.80
2783;DHT22;1399;47.072;15.452;2023-07-16T00:09:32;22.60;90.90
2783;DHT22;1399;47.072;15.452;2023-07-16T00:11:58;22.70;91.00
2783;DHT22;1399;47.072;15.452;2023-07-16T00:14:24;22.60;91.00
2783;DHT22;1399;47.072;15.452;2023-07-16T00:16:51;22.60;91.00
2783;DHT22;1399;47.072;15.452;2023-07-16T00:19:17;22.60;91.00
2783;DHT22;1399;47.072;15.452;2023-07-16T00:21:43;22.60;91.10
2783;DHT22;1399;47.072;15.452;2023-07-16T00:24:08;22.60;91.10
2783;DHT22;1399;47.072;15.452;2023-07-16T00:26:34;22.60;91.10
2783;DHT22;1399;47.072;15.452;2023-07-16T00:29:00;22.50;91.10
2783;DHT22;1399;47.072;15.452;2023-07-16T00:31:26;22.50;91.10
2783;DHT22;1399;47.072;15.452;2023-07-16T00:33:52;22.50;91.10
2783;DHT22;1399;47.072;15.452;2023-07-16T00:36:18;22.50;91.10
2783;DHT22;1399;47.072;15.452;2023-07-16T00:38:44;22.50;91.00
2783;DHT22;1399;47.072;15.452;2023-07-16T00:41:13;22.40;91.00
2783;DHT22;1399;47.072;15.452;2023-07-16T00:43:40;22.50;91.10
2783;DHT22;1399;47.072;15.452;2023-07-16T00:46:07;22.40;91.00
2783;DHT22;1399;47.072;15.452;2023-07-16T00:48:33;22.40;91.10
2783;DHT22;1399;47.072;15.452;2023-07-16T00:51:00;22.40;91.20
2783;DHT22;1399;47.072;15.452;2023-07-16T00:53:27;22.40;91.20
2783;DHT22;1399;47.072;15.452;2023-07-16T00:55:53;22.40;91.30
2783;DHT22;1399;47.072;15.452;2023-07-16T00:58:19;22.40;91.30
2783;DHT22;1399;47.072;15.452;2023-07-16T01:00:44;22.30;91.30
2783;DHT22;1399;47.072;15.452;2023-07-16T01:03:12;22.30;91.30
2783;DHT22;1399;47.072;15.452;2023-07-16T01:09:18;22.30;91.40
2783;DHT22;1399;47.072;15.452;2023-07-16T01:11:25;22.30;91.40
2783;DHT22;1399;47.072;15.452;2023-07-16T01:13:52;22.30;91.30
2783;DHT22;1399;47.072;15.452;2023-07-16T01:16:21;22.30;91.30
2783;DHT22;1399;47.072;15.452;2023-07-16T01:18:48;22.30;91.40
2783;DHT22;1399;47.072;15.452;2023-07-16T01:21:16;22.20;91.30
2783;DHT22;1399;47.072;15.452;2023-07-16T01:29:37;22.20;91.30
2783;DHT22;1399;47.072;15.452;2023-07-16T01:32:07;22.20;91.40
2783;DHT22;1399;47.072;15.452;2023-07-16T01:34:34;22.20;91.40
2783;DHT22;1399;47.072;15.452;2023-07-16T01:37:02;22.20;91.40
2783;DHT22;1399;47.072;15.452;2023-07-16T01:39:31;22.10;91.40
2783;DHT22;1399;47.072;15.452;2023-07-16T01:42:00;22.10;91.50
2783;DHT22;1399;47.072;15.452;2023-07-16T01:44:26;22.10;91.50
2783;DHT22;1399;47.072;15.452;2023-07-16T01:47:09;22.10;91.50
2783;DHT22;1399;47.072;15.452;2023-07-16T01:49:35;22.10;91.50
2783;DHT22;1399;47.072;15.452;2023-07-16T01:52:02;22.10;91.60
2783;DHT22;1399;47.072;15.452;2023-07-16T01:54:28;22.10;91.60
2783;DHT22;1399;47.072;15.452;2023-07-16T01:56:54;22.00;91.60
2783;DHT22;1399;47.072;15.452;2023-07-16T01:59:20;22.00;91.70
2783;DHT22;1399;47.072;15.452;2023-07-16T02:01:46;22.00;91.70
2783;DHT22;1399;47.072;15.452;2023-07-16T02:04:11;22.00;91.70
2783;DHT22;1399;47.072;15.452;2023-07-16T02:06:37;22.00;91.80
2783;DHT22;1399;47.072;15.452;2023-07-16T02:09:03;22.00;91.90
2783;DHT22;1399;47.072;15.452;2023-07-16T02:11:29;22.00;92.00
2783;DHT22;1399;47.072;15.452;2023-07-16T02:13:55;21.90;92.00
2783;DHT22;1399;47.072;15.452;2023-07-16T02:16:21;21.90;92.10
2783;DHT22;1399;47.072;15.452;2023-07-16T02:18:47;21.90;92.20
2783;DHT22;1399;47.072;15.452;2023-07-16T02:21:13;21.90;92.20
2783;DHT22;1399;47.072;15.452;2023-07-16T02:23:39;21.90;92.30
2783;DHT22;1399;47.072;15.452;2023-07-16T02:26:05;21.90;92.30
2783;DHT22;1399;47.072;15.452;2023-07-16T02:28:31;21.90;92.40
2783;DHT22;1399;47.072;15.452;2023-07-16T02:30:58;21.80;92.30
2783;DHT22;1399;47.072;15.452;2023-07-16T02:33:25;21.80;92.30
2783;DHT22;1399;47.072;15.452;2023-07-16T02:35:50;21.80;92.30
2783;DHT22;1399;47.072;15.452;2023-07-16T02:38:19;21.80;92.30
2783;DHT22;1399;47.072;15.452;2023-07-16T02:40:46;21.80;92.40
2783;DHT22;1399;47.072;15.452;2023-07-16T02:43:12;21.80;92.40
2783;DHT22;1399;47.072;15.452;2023-07-16T02:45:39;21.80;92.40
2783;DHT22;1399;47.072;15.452;2023-07-16T02:48:06;21.70;92.40
2783;DHT22;1399;47.072;15.452;2023-07-16T02:50:36;21.70;92.40
2783;DHT22;1399;47.072;15.452;2023-07-16T02:53:07;21.70;92.50
2783;DHT22;1399;47.072;15.452;2023-07-16T02:55:35;21.70;92.50
2783;DHT22;1399;47.072;15.452;2023-07-16T02:58:01;21.70;92.60
2783;DHT22;1399;47.072;15.452;2023-07-16T03:00:32;21.70;92.60
2783;DHT22;1399;47.072;15.452;2023-07-16T03:02:59;21.70;92.70
2783;DHT22;1399;47.072;15.452;2023-07-16T03:05:27;21.60;92.90
2783;DHT22;1399;47.072;15.452;2023-07-16T03:07:54;21.60;92.80
2783;DHT22;1399;47.072;15.452;2023-07-16T03:10:21;21.60;92.90
2783;DHT22;1399;47.072;15.452;2023-07-16T03:12:47;21.60;92.90
2783;DHT22;1399;47.072;15.452;2023-07-16T03:15:13;21.60;92.90
2783;DHT22;1399;47.072;15.452;2023-07-16T03:17:39;21.60;93.00
2783;DHT22;1399;47.072;15.452;2023-07-16T03:20:05;21.60;93.00
2783;DHT22;1399;47.072;15.452;2023-07-16T03:22:32;21.50;93.00
2783;DHT22;1399;47.072;15.452;2023-07-16T03:24:58;21.60;93.10
2783;DHT22;1399;47.072;15.452;2023-07-16T03:27:23;21.50;93.00
2783;DHT22;1399;47.072;15.452;2023-07-16T03:29:49;21.50;93.00
2783;DHT22;1399;47.072;15.452;2023-07-16T03:32:15;21.50;93.10
2783;DHT22;1399;47.072;15.452;2023-07-16T03:34:41;21.50;93.00
2783;DHT22;1399;47.072;15.452;2023-07-16T03:37:06;21.50;93.10
2783;DHT22;1399;47.072;15.452;2023-07-16T03:39:32;21.50;93.00
2783;DHT22;1399;47.072;15.452;2023-07-16T03:41:58;21.50;93.00
2783;DHT22;1399;47.072;15.452;2023-07-16T03:44:24;21.50;92.90
2783;DHT22;1399;47.072;15.452;2023-07-16T03:46:50;21.50;92.90
2783;DHT22;1399;47.072;15.452;2023-07-16T03:49:16;21.50;92.80
2783;DHT22;1399;47.072;15.452;2023-07-16T03:51:42;21.50;92.80
2783;DHT22;1399;47.072;15.452;2023-07-16T03:54:07;21.50;92.80
2783;DHT22;1399;47.072;15.452;2023-07-16T03:56:33;21.50;92.80
2783;DHT22;1399;47.072;15.452;2023-07-16T03:58:59;21.40;92.70
2783;DHT22;1399;47.072;15.452;2023-07-16T04:01:25;21.50;92.70
2783;DHT22;1399;47.072;15.452;2023-07-16T04:03:51;21.50;92.70
2783;DHT22;1399;47.072;15.452;2023-07-16T04:06:17;21.50;92.60
2783;DHT22;1399;47.072;15.452;2023-07-16T04:08:43;21.50;92.60
2783;DHT22;1399;47.072;15.452;2023-07-16T04:11:08;21.50;92.60
2783;DHT22;1399;47.072;15.452;2023-07-16T04:13:34;21.50;92.50
2783;DHT22;1399;47.072;15.452;2023-07-16T04:16:00;21.50;92.50
2783;DHT22;1399;47.072;15.452;2023-07-16T04:18:26;21.50;92.50
2783;DHT22;1399;47.072;15.452;2023-07-16T04:20:53;21.50;92.50
2783;DHT22;1399;47.072;15.452;2023-07-16T04:23:19;21.50;92.50
2783;DHT22;1399;47.072;15.452;2023-07-16T04:25:45;21.50;92.40
2783;DHT22;1399;47.072;15.452;2023-07-16T04:28:12;21.60;92.50
2783;DHT22;1399;47.072;15.452;2023-07-16T04:30:38;21.60;92.50
2783;DHT22;1399;47.072;15.452;2023-07-16T04:33:04;21.60;92.50
2783;DHT22;1399;47.072;15.452;2023-07-16T04:35:32;21.60;92.50
2783;DHT22;1399;47.072;15.452;2023-07-16T04:37:59;21.60;92.60
2783;DHT22;1399;47.072;15.452;2023-07-16T04:40:25;21.60;92.50
2783;DHT22;1399;47.072;15.452;2023-07-16T04:42:50;21.70;92.50
2783;DHT22;1399;47.072;15.452;2023-07-16T04:45:17;21.70;92.50
2783;DHT22;1399;47.072;15.452;2023-07-16T04:47:43;21.70;92.40
2783;DHT22;1399;47.072;15.452;2023-07-16T04:50:08;21.70;92.40
2783;DHT22;1399;47.072;15.452;2023-07-16T04:52:34;21.80;92.40
2783;DHT22;1399;47.072;15.452;2023-07-16T04:55:00;21.80;92.40
2783;DHT22;1399;47.072;15.452;2023-07-16T04:57:26;21.80;92.30
2783;DHT22;1399;47.072;15.452;2023-07-16T04:59:53;21.80;92.20
2783;DHT22;1399;47.072;15.452;2023-07-16T05:02:19;21.80;92.50
2783;DHT22;1399;47.072;15.452;2023-07-16T05:04:45;21.90;92.10
2783;DHT22;1399;47.072;15.452;2023-07-16T05:07:13;21.90;92.10
2783;DHT22;1399;47.072;15.452;2023-07-16T05:09:41;21.90;92.00
2783;DHT22;1399;47.072;15.452;2023-07-16T05:12:07;22.00;92.00
2783;DHT22;1399;47.072;15.452;2023-07-16T05:14:46;22.00;91.90
2783;DHT22;1399;47.072;15.452;2023-07-16T05:17:13;22.00;91.90
2783;DHT22;1399;47.072;15.452;2023-07-16T05:19:40;22.10;91.80
2783;DHT22;1399;47.072;15.452;2023-07-16T05:22:06;22.10;91.80
2783;DHT22;1399;47.072;15.452;2023-07-16T05:24:32;22.10;91.70
2783;DHT22;1399;47.072;15.452;2023-07-16T05:26:58;22.10;91.60
2783;DHT22;1399;47.072;15.452;2023-07-16T05:29:24;22.20;91.50
2783;DHT22;1399;47.072;15.452;2023-07-16T05:31:50;22.20;91.50
2783;DHT22;1399;47.072;15.452;2023-07-16T05:34:16;22.30;91.40
2783;DHT22;1399;47.072;15.452;2023-07-16T05:36:42;22.30;91.30
2783;DHT22;1399;47.072;15.452;2023-07-16T05:39:10;22.30;91.20
2783;DHT22;1399;47.072;15.452;2023-07-16T05:41:40;22.40;91.10
2783;DHT22;1399;47.072;15.452;2023-07-16T05:44:07;22.40;91.00
2783;DHT22;1399;47.072;15.452;2023-07-16T05:46:33;22.50;91.00
2783;DHT22;1399;47.072;15.452;2023-07-16T05:48:59;22.50;90.90
2783;DHT22;1399;47.072;15.452;2023-07-16T05:51:25;22.50;90.80
2783;DHT22;1399;47.072;15.452;2023-07-16T05:53:51;22.60;90.70
2783;DHT22;1399;47.072;15.452;2023-07-16T05:56:17;22.60;90.50
2783;DHT22;1399;47.072;15.452;2023-07-16T05:58:42;22.60;90.30
2783;DHT22;1399;47.072;15.452;2023-07-16T06:01:08;22.70;90.20
2783;DHT22;1399;47.072;15.452;2023-07-16T06:03:34;22.80;90.10
2783;DHT22;1399;47.072;15.452;2023-07-16T06:06:00;22.80;89.70
2783;DHT22;1399;47.072;15.452;2023-07-16T06:08:26;22.80;89.20
2783;DHT22;1399;47.072;15.452;2023-07-16T06:10:52;22.90;88.60
2783;DHT22;1399;47.072;15.452;2023-07-16T06:13:18;22.90;88.00
2783;DHT22;1399;47.072;15.452;2023-07-16T06:15:44;22.90;87.40
2783;DHT22;1399;47.072;15.452;2023-07-16T06:18:10;23.10;86.60
2783;DHT22;1399;47.072;15.452;2023-07-16T06:20:36;23.40;85.80
2783;DHT22;1399;47.072;15.452;2023-07-16T06:23:01;23.60;85.00
2783;DHT22;1399;47.072;15.452;2023-07-16T06:25:27;23.70;84.80
2783;DHT22;1399;47.072;15.452;2023-07-16T06:27:53;24.70;84.50
2783;DHT22;1399;47.072;15.452;2023-07-16T06:30:19;26.40;79.90
2783;DHT22;1399;47.072;15.452;2023-07-16T06:32:45;28.10;72.90
2783;DHT22;1399;47.072;15.452;2023-07-16T06:35:10;29.60;66.20
2783;DHT22;1399;47.072;15.452;2023-07-16T06:37:36;30.70;60.50
2783;DHT22;1399;47.072;15.452;2023-07-16T06:40:03;31.70;57.40
2783;DHT22;1399;47.072;15.452;2023-07-16T06:42:29;32.40;55.10
2783;DHT22;1399;47.072;15.452;2023-07-16T06:44:55;33.10;53.40
2783;DHT22;1399;47.072;15.452;2023-07-16T06:47:21;33.60;52.00
2783;DHT22;1399;47.072;15.452;2023-07-16T06:49:46;34.00;50.80
2783;DHT22;1399;47.072;15.452;2023-07-16T06:52:20;34.40;49.90
2783;DHT22;1399;47.072;15.452;2023-07-16T06:54:46;34.70;49.10
2783;DHT22;1399;47.072;15.452;2023-07-16T06:57:12;34.90;48.40
2783;DHT22;1399;47.072;15.452;2023-07-16T06:59:38;35.20;47.80
2783;DHT22;1399;47.072;15.452;2023-07-16T07:02:04;35.20;47.30
2783;DHT22;1399;47.072;15.452;2023-07-16T07:04:31;35.30;47.00
2783;DHT22;1399;47.072;15.452;2023-07-16T07:06:57;35.20;47.00
2783;DHT22;1399;47.072;15.452;2023-07-16T07:09:23;35.00;47.10
2783;DHT22;1399;47.072;15.452;2023-07-16T07:11:49;34.70;47.30
2783;DHT22;1399;47.072;15.452;2023-07-16T07:14:15;34.40;47.70
2783;DHT22;1399;47.072;15.452;2023-07-16T07:16:41;33.90;48.40
2783;DHT22;1399;47.072;15.452;2023-07-16T07:19:06;33.40;49.00
2783;DHT22;1399;47.072;15.452;2023-07-16T07:21:32;33.00;50.00
2783;DHT22;1399;47.072;15.452;2023-07-16T07:23:58;32.50;50.50
2783;DHT22;1399;47.072;15.452;2023-07-16T07:26:25;32.20;51.30
2783;DHT22;1399;47.072;15.452;2023-07-16T07:28:51;31.90;52.10
2783;DHT22;1399;47.072;15.452;2023-07-16T07:31:17;31.50;53.10
2783;DHT22;1399;47.072;15.452;2023-07-16T07:33:43;31.30;53.80
2783;DHT22;1399;47.072;15.452;2023-07-16T07:36:09;31.00;54.30
2783;DHT22;1399;47.072;15.452;2023-07-16T07:38:35;30.80;55.00
2783;DHT22;1399;47.072;15.452;2023-07-16T07:41:01;30.50;55.60
2783;DHT22;1399;47.072;15.452;2023-07-16T07:43:27;30.30;56.20
2783;DHT22;1399;47.072;15.452;2023-07-16T07:45:52;30.00;56.70
2783;DHT22;1399;47.072;15.452;2023-07-16T07:48:18;29.80;57.60
2783;DHT22;1399;47.072;15.452;2023-07-16T07:50:46;29.50;58.20
2783;DHT22;1399;47.072;15.452;2023-07-16T07:53:12;29.30;58.40
2783;DHT22;1399;47.072;15.452;2023-07-16T07:55:38;29.10;58.60
2783;DHT22;1399;47.072;15.452;2023-07-16T07:58:03;28.90;58.80
2783;DHT22;1399;47.072;15.452;2023-07-16T08:00:29;28.80;59.10
2783;DHT22;1399;47.072;15.452;2023-07-16T08:02:55;28.60;59.20
2783;DHT22;1399;47.072;15.452;2023-07-16T08:05:21;28.50;59.40
2783;DHT22;1399;47.072;15.452;2023-07-16T08:07:47;28.40;59.50
2783;DHT22;1399;47.072;15.452;2023-07-16T08:10:13;28.20;59.50
2783;DHT22;1399;47.072;15.452;2023-07-16T08:12:38;28.10;59.40
2783;DHT22;1399;47.072;15.452;2023-07-16T08:15:05;28.10;59.40
2783;DHT22;1399;47.072;15.452;2023-07-16T08:17:33;28.00;59.30
2783;DHT22;1399;47.072;15.452;2023-07-16T08:19:59;27.90;59.40
2783;DHT22;1399;47.072;15.452;2023-07-16T08:22:24;27.90;59.50
2783;DHT22;1399;47.072;15.452;2023-07-16T08:24:53;27.80;59.60
2783;DHT22;1399;47.072;15.452;2023-07-16T08:27:19;27.70;59.60
2783;DHT22;1399;47.072;15.452;2023-07-16T08:29:45;27.70;59.70
2783;DHT22;1399;47.072;15.452;2023-07-16T08:32:11;27.70;59.80
2783;DHT22;1399;47.072;15.452;2023-07-16T08:34:37;27.60;59.70
2783;DHT22;1399;47.072;15.452;2023-07-16T08:37:02;27.60;59.70
2783;DHT22;1399;47.072;15.452;2023-07-16T08:39:30;27.50;59.60
2783;DHT22;1399;47.072;15.452;2023-07-16T08:41:56;27.50;59.60
2783;DHT22;1399;47.072;15.452;2023-07-16T08:44:24;27.50;59.50
2783;DHT22;1399;47.072;15.452;2023-07-16T08:46:50;27.40;59.50
2783;DHT22;1399;47.072;15.452;2023-07-16T08:49:19;27.40;59.50
2783;DHT22;1399;47.072;15.452;2023-07-16T08:51:48;27.40;59.50
2783;DHT22;1399;47.072;15.452;2023-07-16T08:54:15;27.30;59.40
2783;DHT22;1399;47.072;15.452;2023-07-16T08:56:46;27.30;59.30
2783;DHT22;1399;47.072;15.452;2023-07-16T08:59:14;27.30;59.20
2783;DHT22;1399;47.072;15.452;2023-07-16T09:01:41;27.30;59.20
2783;DHT22;1399;47.072;15.452;2023-07-16T09:04:06;27.20;59.20
2783;DHT22;1399;47.072;15.452;2023-07-16T09:06:32;27.20;59.20
2783;DHT22;1399;47.072;15.452;2023-07-16T09:08:58;27.20;59.20
2783;DHT22;1399;47.072;15.452;2023-07-16T09:11:24;27.20;59.30
2783;DHT22;1399;47.072;15.452;2023-07-16T09:13:50;27.20;59.30
2783;DHT22;1399;47.072;15.452;2023-07-16T09:16:20;27.10;59.30
2783;DHT22;1399;47.072;15.452;2023-07-16T09:18:47;27.10;60.00
2783;DHT22;1399;47.072;15.452;2023-07-16T09:21:14;27.10;59.30
2783;DHT22;1399;47.072;15.452;2023-07-16T09:23:40;27.10;59.40
2783;DHT22;1399;47.072;15.452;2023-07-16T09:26:07;27.10;59.60
2783;DHT22;1399;47.072;15.452;2023-07-16T09:28:33;27.10;59.70
2783;DHT22;1399;47.072;15.452;2023-07-16T09:31:06;27.10;59.80
2783;DHT22;1399;47.072;15.452;2023-07-16T09:33:34;27.10;59.90
2783;DHT22;1399;47.072;15.452;2023-07-16T09:36:00;27.00;59.80
2783;DHT22;1399;47.072;15.452;2023-07-16T09:38:27;27.00;59.90
2783;DHT22;1399;47.072;15.452;2023-07-16T09:40:55;27.00;59.90
2783;DHT22;1399;47.072;15.452;2023-07-16T09:43:21;27.00;60.00
2783;DHT22;1399;47.072;15.452;2023-07-16T09:45:47;27.00;60.00
2783;DHT22;1399;47.072;15.452;2023-07-16T09:48:14;27.00;60.00
2783;DHT22;1399;47.072;15.452;2023-07-16T09:50:50;27.00;60.10
2783;DHT22;1399;47.072;15.452;2023-07-16T09:53:20;27.00;60.00
2783;DHT22;1399;47.072;15.452;2023-07-16T09:55:48;27.00;60.00
2783;DHT22;1399;47.072;15.452;2023-07-16T09:58:17;27.00;60.00
2783;DHT22;1399;47.072;15.452;2023-07-16T10:00:45;27.00;60.10
2783;DHT22;1399;47.072;15.452;2023-07-16T10:03:15;27.00;60.20
2783;DHT22;1399;47.072;15.452;2023-07-16T10:05:41;27.00;60.20
2783;DHT22;1399;47.072;15.452;2023-07-16T10:08:16;27.00;60.10
2783;DHT22;1399;47.072;15.452;2023-07-16T10:10:54;27.00;60.10
2783;DHT22;1399;47.072;15.452;2023-07-16T10:13:24;27.00;60.10
2783;DHT22;1399;47.072;15.452;2023-07-16T10:15:54;27.00;60.00
2783;DHT22;1399;47.072;15.452;2023-07-16T10:18:31;27.00;60.00
2783;DHT22;1399;47.072;15.452;2023-07-16T10:21:06;27.00;60.90
2783;DHT22;1399;47.072;15.452;2023-07-16T10:23:40;27.00;60.00
2783;DHT22;1399;47.072;15.452;2023-07-16T10:26:08;27.10;59.90
2783;DHT22;1399;47.072;15.452;2023-07-16T10:28:38;27.10;59.80
2783;DHT22;1399;47.072;15.452;2023-07-16T10:31:05;27.20;59.60
2783;DHT22;1399;47.072;15.452;2023-07-16T10:33:34;27.30;59.50
2783;DHT22;1399;47.072;15.452;2023-07-16T10:36:02;27.30;59.40
2783;DHT22;1399;47.072;15.452;2023-07-16T10:38:28;27.30;59.30
2783;DHT22;1399;47.072;15.452;2023-07-16T10:40:56;27.30;59.30
2783;DHT22;1399;47.072;15.452;2023-07-16T10:43:22;27.30;59.30
2783;DHT22;1399;47.072;15.452;2023-07-16T10:45:50;27.20;59.30
2783;DHT22;1399;47.072;15.452;2023-07-16T10:48:16;27.20;59.40
2783;DHT22;1399;47.072;15.452;2023-07-16T10:50:42;27.10;59.60
2783;DHT22;1399;47.072;15.452;2023-07-16T10:53:08;27.10;59.80
2783;DHT22;1399;47.072;15.452;2023-07-16T10:55:34;27.10;59.90
2783;DHT22;1399;47.072;15.452;2023-07-16T10:58:04;27.00;59.90
2783;DHT22;1399;47.072;15.452;2023-07-16T11:00:37;27.00;60.00
2783;DHT22;1399;47.072;15.452;2023-07-16T11:03:04;27.00;60.10
2783;DHT22;1399;47.072;15.452;2023-07-16T11:05:30;27.00;60.10
2783;DHT22;1399;47.072;15.452;2023-07-16T11:07:56;26.90;60.10
2783;DHT22;1399;47.072;15.452;2023-07-16T11:10:23;26.90;60.20
2783;DHT22;1399;47.072;15.452;2023-07-16T11:12:52;26.90;60.20
2783;DHT22;1399;47.072;15.452;2023-07-16T11:15:33;26.90;60.40
2783;DHT22;1399;47.072;15.452;2023-07-16T11:18:01;27.00;60.50
2783;DHT22;1399;47.072;15.452;2023-07-16T11:20:27;27.00;60.40
2783;DHT22;1399;47.072;15.452;2023-07-16T11:22:57;27.00;60.40
2783;DHT22;1399;47.072;15.452;2023-07-16T11:25:24;27.00;60.60
2783;DHT22;1399;47.072;15.452;2023-07-16T11:27:55;27.00;60.50
2783;DHT22;1399;47.072;15.452;2023-07-16T11:30:23;27.00;60.50
2783;DHT22;1399;47.072;15.452;2023-07-16T11:32:50;27.00;60.30
2783;DHT22;1399;47.072;15.452;2023-07-16T11:35:19;27.00;60.50
2783;DHT22;1399;47.072;15.452;2023-07-16T11:37:46;27.00;60.50
2783;DHT22;1399;47.072;15.452;2023-07-16T11:40:19;27.10;60.50
2783;DHT22;1399;47.072;15.452;2023-07-16T11:42:46;27.10;60.40
2783;DHT22;1399;47.072;15.452;2023-07-16T11:45:24;27.10;60.20
2783;DHT22;1399;47.072;15.452;2023-07-16T11:47:52;27.10;60.10
2783;DHT22;1399;47.072;15.452;2023-07-16T11:50:19;27.20;59.90
2783;DHT22;1399;47.072;15.452;2023-07-16T11:52:53;27.20;59.90
2783;DHT22;1399;47.072;15.452;2023-07-16T11:55:19;27.30;59.90
2783;DHT22;1399;47.072;15.452;2023-07-16T11:57:45;27.30;59.70
2783;DHT22;1399;47.072;15.452;2023-07-16T12:00:11;27.30;59.60
2783;DHT22;1399;47.072;15.452;2023-07-16T12:02:37;27.30;59.50
2783;DHT22;1399;47.072;15.452;2023-07-16T12:05:03;27.40;59.50
2783;DHT22;1399;47.072;15.452;2023-07-16T12:07:35;27.40;59.40
2783;DHT22;1399;47.072;15.452;2023-07-16T12:10:03;27.40;59.40
2783;DHT22;1399;47.072;15.452;2023-07-16T12:12:29;27.50;59.50
2783;DHT22;1399;47.072;15.452;2023-07-16T12:14:55;27.50;59.50
2783;DHT22;1399;47.072;15.452;2023-07-16T12:17:21;27.50;59.30
2783;DHT22;1399;47.072;15.452;2023-07-16T12:19:47;27.60;59.30
2783;DHT22;1399;47.072;15.452;2023-07-16T12:22:13;27.60;59.20
2783;DHT22;1399;47.072;15.452;2023-07-16T12:24:41;27.60;59.10
2783;DHT22;1399;47.072;15.452;2023-07-16T12:27:07;27.60;59.10
2783;DHT22;1399;47.072;15.452;2023-07-16T12:29:33;27.70;59.10
2783;DHT22;1399;47.072;15.452;2023-07-16T12:31:59;27.60;59.00
2783;DHT22;1399;47.072;15.452;2023-07-16T12:34:25;27.60;58.90
2783;DHT22;1399;47.072;15.452;2023-07-16T12:36:51;27.60;58.90
2783;DHT22;1399;47.072;15.452;2023-07-16T12:39:17;27.70;59.00
2783;DHT22;1399;47.072;15.452;2023-07-16T12:41:43;27.70;59.00
2783;DHT22;1399;47.072;15.452;2023-07-16T12:44:09;27.70;59.00
2783;DHT22;1399;47.072;15.452;2023-07-16T12:46:35;27.80;59.00
2783;DHT22;1399;47.072;15.452;2023-07-16T12:49:01;27.80;58.80
2783;DHT22;1399;47.072;15.452;2023-07-16T12:51:26;27.80;58.70
2783;DHT22;1399;47.072;15.452;2023-07-16T12:53:52;27.80;58.80
2783;DHT22;1399;47.072;15.452;2023-07-16T12:56:18;27.80;58.80
2783;DHT22;1399;47.072;15.452;2023-07-16T12:58:44;27.80;58.80
2783;DHT22;1399;47.072;15.452;2023-07-16T13:01:10;27.80;58.70
2783;DHT22;1399;47.072;15.452;2023-07-16T13:03:36;27.80;58.70
2783;DHT22;1399;47.072;15.452;2023-07-16T13:06:02;27.80;58.90
2783;DHT22;1399;47.072;15.452;2023-07-16T13:08:30;27.80;58.90
2783;DHT22;1399;47.072;15.452;2023-07-16T13:10:57;27.80;58.80
2783;DHT22;1399;47.072;15.452;2023-07-16T13:13:22;27.80;58.80
2783;DHT22;1399;47.072;15.452;2023-07-16T13:15:49;27.80;58.80
2783;DHT22;1399;47.072;15.452;2023-07-16T13:18:16;27.80;58.90
2783;DHT22;1399;47.072;15.452;2023-07-16T13:20:44;27.70;58.90
2783;DHT22;1399;47.072;15.452;2023-07-16T13:23:10;27.70;59.00
2783;DHT22;1399;47.072;15.452;2023-07-16T13:25:36;27.70;59.00
2783;DHT22;1399;47.072;15.452;2023-07-16T13:28:05;27.70;58.90
2783;DHT22;1399;47.072;15.452;2023-07-16T13:30:32;27.70;59.00
2783;DHT22;1399;47.072;15.452;2023-07-16T13:32:58;27.70;59.00
2783;DHT22;1399;47.072;15.452;2023-07-16T13:35:25;27.70;59.10
2783;DHT22;1399;47.072;15.452;2023-07-16T13:37:51;27.70;59.10
2783;DHT22;1399;47.072;15.452;2023-07-16T13:40:17;27.70;59.00
2783;DHT22;1399;47.072;15.452;2023-07-16T13:42:49;27.70;59.20
2783;DHT22;1399;47.072;15.452;2023-07-16T13:45:15;27.70;59.40
2783;DHT22;1399;47.072;15.452;2023-07-16T13:47:42;27.70;59.30
2783;DHT22;1399;47.072;15.452;2023-07-16T13:50:08;27.70;59.30
2783;DHT22;1399;47.072;15.452;2023-07-16T13:52:35;27.60;59.20
2783;DHT22;1399;47.072;15.452;2023-07-16T13:55:01;27.60;59.20
2783;DHT22;1399;47.072;15.452;2023-07-16T13:57:29;27.60;59.20
2783;DHT22;1399;47.072;15.452;2023-07-16T13:59:56;27.60;59.10
2783;DHT22;1399;47.072;15.452;2023-07-16T14:02:22;27.70;59.20
2783;DHT22;1399;47.072;15.452;2023-07-16T14:04:49;27.70;59.20
2783;DHT22;1399;47.072;15.452;2023-07-16T14:07:15;27.70;59.30
2783;DHT22;1399;47.072;15.452;2023-07-16T14:09:41;27.80;59.40
2783;DHT22;1399;47.072;15.452;2023-07-16T14:12:07;27.70;59.30
2783;DHT22;1399;47.072;15.452;2023-07-16T14:14:34;27.70;59.60
2783;DHT22;1399;47.072;15.452;2023-07-16T14:17:00;27.70;59.60
2783;DHT22;1399;47.072;15.452;2023-07-16T14:19:26;27.70;59.80
2783;DHT22;1399;47.072;15.452;2023-07-16T14:21:53;27.70;59.80
2783;DHT22;1399;47.072;15.452;2023-07-16T14:24:19;27.70;60.70
2783;DHT22;1399;47.072;15.452;2023-07-16T14:26:45;27.70;60.00
2783;DHT22;1399;47.072;15.452;2023-07-16T14:29:12;27.70;60.20
2783;DHT22;1399;47.072;15.452;2023-07-16T14:31:38;27.70;60.30
2783;DHT22;1399;47.072;15.452;2023-07-16T14:34:04;27.60;60.10
2783;DHT22;1399;47.072;15.452;2023-07-16T14:36:30;27.70;60.20
2783;DHT22;1399;47.072;15.452;2023-07-16T14:38:57;27.60;60.10
2783;DHT22;1399;47.072;15.452;2023-07-16T14:41:23;27.70;60.10
2783;DHT22;1399;47.072;15.452;2023-07-16T14:43:49;27.70;60.20
2783;DHT22;1399;47.072;15.452;2023-07-16T14:46:18;27.60;60.00
2783;DHT22;1399;47.072;15.452;2023-07-16T14:48:45;27.60;60.00
2783;DHT22;1399;47.072;15.452;2023-07-16T14:51:11;27.60;60.00
2783;DHT22;1399;47.072;15.452;2023-07-16T14:53:39;27.60;60.00
2783;DHT22;1399;47.072;15.452;2023-07-16T14:56:06;27.60;60.10
2783;DHT22;1399;47.072;15.452;2023-07-16T14:58:33;27.50;60.20
2783;DHT22;1399;47.072;15.452;2023-07-16T15:01:03;27.50;60.20
2783;DHT22;1399;47.072;15.452;2023-07-16T15:03:36;27.50;60.30
2783;DHT22;1399;47.072;15.452;2023-07-16T15:06:04;27.50;60.30
2783;DHT22;1399;47.072;15.452;2023-07-16T15:08:30;27.50;60.10
2783;DHT22;1399;47.072;15.452;2023-07-16T15:11:00;27.50;60.00
2783;DHT22;1399;47.072;15.452;2023-07-16T15:13:26;27.50;59.90
2783;DHT22;1399;47.072;15.452;2023-07-16T15:15:57;27.50;60.00
2783;DHT22;1399;47.072;15.452;2023-07-16T15:18:25;27.50;59.90
2783;DHT22;1399;47.072;15.452;2023-07-16T15:20:59;27.40;59.90
2783;DHT22;1399;47.072;15.452;2023-07-16T15:23:27;27.50;60.00
2783;DHT22;1399;47.072;15.452;2023-07-16T15:25:54;27.40;60.00
2783;DHT22;1399;47.072;15.452;2023-07-16T15:28:21;27.40;60.10
2783;DHT22;1399;47.072;15.452;2023-07-16T15:30:48;27.50;60.10
2783;DHT22;1399;47.072;15.452;2023-07-16T15:33:15;27.40;60.00
2783;DHT22;1399;47.072;15.452;2023-07-16T15:35:41;27.40;59.90
2783;DHT22;1399;47.072;15.452;2023-07-16T15:38:07;27.40;59.90
2783;DHT22;1399;47.072;15.452;2023-07-16T15:40:34;27.40;60.10
2783;DHT22;1399;47.072;15.452;2023-07-16T15:43:01;27.30;60.20
2783;DHT22;1399;47.072;15.452;2023-07-16T15:45:27;27.30;60.20
2783;DHT22;1399;47.072;15.452;2023-07-16T15:47:54;27.30;60.20
2783;DHT22;1399;47.072;15.452;2023-07-16T15:50:26;27.30;60.40
2783;DHT22;1399;47.072;15.452;2023-07-16T15:52:52;27.30;60.20